Time;durP1;ratioP1;P1;durP2;ratioP2;P2;SDS_P1;SDS_P2;PMS_P1;PMS_P2;Temp;Humidity;BMP_temperature;BMP_pressure;BME280_temperature;BME280_humidity;BME280_pressure;Samples;Min_cycle;Max_cycle;Signal;HPM_P1;HPM_P2
2022/12/10 00:01:12;;;;;;;50.17;21.90;;;-0.80;98.60;;;;;;5088887;28;20431;-82
2022/12/10 00:03:38;;;;;;;54.33;22.23;;;-0.80;98.60;;;;;;5088834;28;20332;-82
2022/12/10 00:06:07;;;;;;;52.83;22.33;;;-0.80;98.70;;;;;;5073362;28;20028;-82
2022/12/10 00:08:34;;;;;;;57.70;23.70;;;-0.80;98.70;;;;;;5073179;28;20031;-81
2022/12/10 00:11:03;;;;;;;51.30;22.30;;;-0.80;98.80;;;;;;5073172;28;20028;-82
2022/12/10 00:13:29;;;;;;;59.30;22.47;;;-0.80;98.90;;;;;;5088732;28;20024;-82
2022/12/10 00:15:54;;;;;;;53.43;22.17;;;-0.70;99.00;;;;;;5071869;28;20388;-82
2022/12/10 00:18:20;;;;;;;53.83;21.43;;;-0.70;99.00;;;;;;5073189;28;20033;-82
2022/12/10 00:20:45;;;;;;;49.70;22.70;;;-0.80;98.90;;;;;;5071796;28;20025;-82
2022/12/10 00:23:11;;;;;;;62.50;24.03;;;-0.80;99.00;;;;;;5072913;28;20035;-82
2022/12/10 00:25:37;;;;;;;57.10;24.50;;;-0.80;99.00;;;;;;5073258;28;20052;-82
2022/12/10 00:28:02;;;;;;;51.30;21.33;;;-0.80;99.10;;;;;;5074145;28;20028;-83
2022/12/10 00:30:28;;;;;;;56.57;23.63;;;-0.80;99.10;;;;;;5092806;28;20025;-82
2022/12/10 00:32:54;;;;;;;59.27;23.23;;;-0.80;99.10;;;;;;5075797;28;20021;-82
2022/12/10 00:35:19;;;;;;;55.27;22.43;;;-0.90;99.10;;;;;;5075989;28;20035;-82
2022/12/10 00:37:45;;;;;;;55.97;22.60;;;-0.80;99.10;;;;;;5076079;28;20464;-82
2022/12/10 00:40:11;;;;;;;51.77;22.70;;;-0.90;99.10;;;;;;5092521;28;20381;-82
2022/12/10 00:42:37;;;;;;;57.33;22.30;;;-0.90;99.00;;;;;;5092382;28;20032;-82
2022/12/10 00:45:04;;;;;;;56.20;23.67;;;-0.90;99.10;;;;;;5075610;28;20044;-82
2022/12/10 00:47:29;;;;;;;59.90;23.90;;;-0.90;99.20;;;;;;5075601;28;20029;-82
2022/12/10 00:49:55;;;;;;;56.47;23.47;;;-0.90;99.20;;;;;;5076418;28;20055;-82
2022/12/10 00:52:21;;;;;;;53.43;22.57;;;-0.90;99.20;;;;;;5075739;28;20202;-82
2022/12/10 00:54:46;;;;;;;56.67;23.63;;;-0.90;99.20;;;;;;5092275;28;20396;-82
2022/12/10 00:57:12;;;;;;;51.47;22.40;;;-0.90;99.30;;;;;;5075666;28;20488;-82
2022/12/10 00:59:38;;;;;;;53.23;24.17;;;-0.90;99.30;;;;;;5076553;28;20035;-82
2022/12/10 01:02:03;;;;;;;54.23;24.20;;;-1.00;99.30;;;;;;5092211;28;20056;-82
2022/12/10 01:04:29;;;;;;;53.63;23.20;;;-0.90;99.40;;;;;;5075247;28;20468;-82
2022/12/10 01:06:55;;;;;;;57.47;23.73;;;-0.90;99.40;;;;;;5075223;28;20032;-82
2022/12/10 01:09:23;;;;;;;57.53;22.97;;;-0.90;99.50;;;;;;5075164;28;20137;-82
2022/12/10 01:11:50;;;;;;;57.50;23.07;;;-0.90;99.50;;;;;;5076268;28;20020;-82
2022/12/10 01:14:23;;;;;;;62.53;25.93;;;-0.90;99.50;;;;;;5092001;28;20035;-82
2022/12/10 01:16:52;;;;;;;55.70;22.80;;;-0.90;99.50;;;;;;5091779;28;20407;-82
2022/12/10 01:19:18;;;;;;;61.07;24.33;;;-0.90;99.60;;;;;;5091592;28;20361;-82
2022/12/10 01:21:44;;;;;;;59.93;23.90;;;-0.90;99.70;;;;;;5075959;28;20103;-82
2022/12/10 01:24:09;;;;;;;57.77;24.10;;;-0.90;99.70;;;;;;5091736;28;20472;-83
2022/12/10 01:26:36;;;;;;;52.80;22.87;;;-0.90;99.70;;;;;;5074682;28;20028;-82
2022/12/10 01:29:04;;;;;;;53.10;23.70;;;-0.90;99.70;;;;;;5091520;28;20025;-82
2022/12/10 01:31:36;;;;;;;60.80;25.43;;;-0.90;99.70;;;;;;5091507;28;20025;-82
2022/12/10 01:34:03;;;;;;;53.97;22.33;;;-0.90;99.70;;;;;;5074682;28;20032;-82
2022/12/10 01:36:38;;;;;;;55.23;22.23;;;-0.90;99.80;;;;;;5091328;28;20488;-82
2022/12/10 01:39:06;;;;;;;58.13;22.90;;;-0.90;99.70;;;;;;5091390;28;20275;-82
2022/12/10 01:41:49;;;;;;;59.10;24.23;;;-0.90;99.70;;;;;;5091372;28;20082;-82
2022/12/10 01:44:14;;;;;;;60.07;22.77;;;-1.00;99.60;;;;;;5091094;28;20317;-82
2022/12/10 01:46:42;;;;;;;51.90;21.73;;;-1.00;99.60;;;;;;5091326;28;20314;-82
2022/12/10 01:49:14;;;;;;;51.97;21.80;;;-0.90;99.70;;;;;;5075563;28;20040;-82
2022/12/10 01:51:42;;;;;;;55.43;24.07;;;-1.00;99.70;;;;;;5091269;28;20024;-82
2022/12/10 01:54:12;;;;;;;63.37;24.47;;;-1.00;99.70;;;;;;5091057;28;20115;-82
2022/12/10 01:56:48;;;;;;;54.00;22.53;;;-1.00;99.70;;;;;;5091096;28;20271;-82
2022/12/10 01:59:14;;;;;;;56.03;23.37;;;-1.00;99.70;;;;;;5090993;28;20047;-82
2022/12/10 02:01:59;;;;;;;56.73;22.63;;;-1.00;99.70;;;;;;5074227;28;20035;-82
2022/12/10 02:04:29;;;;;;;55.10;23.60;;;-1.00;99.70;;;;;;5075295;28;20267;-82
2022/12/10 02:07:04;;;;;;;58.80;24.47;;;-1.00;99.80;;;;;;5091289;28;20321;-82
2022/12/10 02:09:52;;;;;;;55.17;23.63;;;-1.00;99.80;;;;;;5091970;28;20795;-82
2022/12/10 02:12:46;;;;;;;54.33;21.80;;;-1.00;99.80;;;;;;5090920;28;20321;-82
2022/12/10 02:15:24;;;;;;;58.00;24.83;;;-1.10;99.70;;;;;;5075145;28;20671;-82
2022/12/10 02:17:59;;;;;;;52.90;22.43;;;-1.10;99.70;;;;;;5074951;28;20071;-82
2022/12/10 02:20:36;;;;;;;53.97;22.77;;;-1.10;99.60;;;;;;5075137;28;20727;-82
2022/12/10 02:23:07;;;;;;;56.13;22.70;;;-1.10;99.60;;;;;;5090556;28;20275;-82
2022/12/10 02:25:52;;;;;;;57.93;24.60;;;-1.10;99.60;;;;;;5090630;28;20267;-82
2022/12/10 02:28:35;;;;;;;56.07;23.90;;;-1.10;99.60;;;;;;5090331;28;21036;-82
2022/12/10 02:31:03;;;;;;;56.65;24.00;;;-1.20;99.60;;;;;;5090552;28;20332;-82
2022/12/10 02:33:31;;;;;;;56.17;22.80;;;-1.20;99.60;;;;;;5073675;28;20025;-82
2022/12/10 02:35:59;;;;;;;52.80;22.30;;;-1.20;99.70;;;;;;5073480;28;20366;-82
2022/12/10 02:38:29;;;;;;;54.83;22.43;;;-1.20;99.70;;;;;;5073658;28;20293;-82
2022/12/10 02:41:00;;;;;;;56.40;23.53;;;-1.20;99.80;;;;;;5090070;28;20275;-82
2022/12/10 02:43:27;;;;;;;54.87;22.00;;;-1.10;99.80;;;;;;5074474;28;20294;-82
2022/12/10 02:45:55;;;;;;;48.17;21.10;;;-1.20;99.80;;;;;;5073320;28;20677;-82
2022/12/10 02:48:22;;;;;;;60.73;23.43;;;-1.30;99.80;;;;;;5090047;28;20350;-82
2022/12/10 02:50:48;;;;;;;62.80;25.33;;;-1.30;99.70;;;;;;5089500;28;20045;-82
2022/12/10 02:53:13;;;;;;;59.73;24.30;;;-1.30;99.80;;;;;;5089999;28;20271;-82
2022/12/10 02:56:24;;;;;;;56.87;23.03;;;-1.30;99.80;;;;;;5073152;28;20020;-82
2022/12/10 02:59:01;;;;;;;53.93;21.40;;;-1.30;99.90;;;;;;5074366;28;20028;-82
2022/12/10 03:01:50;;;;;;;59.90;22.27;;;-1.30;99.80;;;;;;5074014;28;20290;-82
2022/12/10 03:04:22;;;;;;;60.53;23.17;;;-1.30;99.80;;;;;;5089821;28;20789;-83
2022/12/10 03:06:59;;;;;;;57.43;22.63;;;-1.30;99.90;;;;;;5074208;28;20820;-82
2022/12/10 03:09:33;;;;;;;59.27;23.57;;;-1.40;99.90;;;;;;5074184;28;20619;-82
2022/12/10 03:12:06;;;;;;;61.75;22.88;;;-1.40;99.90;;;;;;5089811;28;20366;-82
2022/12/10 03:14:33;;;;;;;60.37;24.27;;;-1.40;99.90;;;;;;5089707;28;20024;-82
2022/12/10 03:17:01;;;;;;;56.33;23.40;;;-1.40;99.90;;;;;;5089713;28;20282;-82
2022/12/10 03:19:39;;;;;;;58.33;22.93;;;-1.40;99.90;;;;;;5073870;28;20275;-83
2022/12/10 03:22:06;;;;;;;63.27;23.77;;;-1.40;99.90;;;;;;5089457;28;20769;-82
2022/12/10 03:24:34;;;;;;;60.87;24.00;;;-1.40;99.90;;;;;;5089107;28;20777;-82
2022/12/10 03:27:03;;;;;;;58.83;23.40;;;-1.40;99.90;;;;;;5091295;28;20281;-82
2022/12/10 03:29:35;;;;;;;60.03;25.27;;;-1.40;99.90;;;;;;5091328;28;20269;-82
2022/12/10 03:32:02;;;;;;;58.43;23.20;;;-1.40;99.90;;;;;;5092797;28;20274;-83
2022/12/10 03:34:28;;;;;;;54.27;23.40;;;-1.40;99.90;;;;;;5075639;28;20785;-82
2022/12/10 03:36:54;;;;;;;58.93;25.30;;;-1.40;99.90;;;;;;5093819;28;20102;-82
2022/12/10 03:39:20;;;;;;;59.03;24.30;;;-1.40;99.90;;;;;;5091718;28;20281;-82
2022/12/10 03:41:46;;;;;;;62.20;24.90;;;-1.30;99.90;;;;;;5087711;28;20295;-82
2022/12/10 03:44:12;;;;;;;61.87;24.70;;;-1.40;99.90;;;;;;5071230;28;20020;-82
2022/12/10 03:46:37;;;;;;;61.13;25.70;;;-1.40;99.90;;;;;;5071795;28;20024;-82
2022/12/10 03:49:04;;;;;;;59.27;25.33;;;-1.40;99.90;;;;;;5088821;28;20028;-81
2022/12/10 03:51:30;;;;;;;66.50;26.17;;;-1.30;99.90;;;;;;5072440;28;20496;-82
2022/12/10 03:53:56;;;;;;;57.60;25.07;;;-1.40;99.90;;;;;;5071972;28;20282;-78
2022/12/10 03:56:21;;;;;;;61.43;25.20;;;-1.30;99.90;;;;;;5071647;28;20025;-77
2022/12/10 03:58:47;;;;;;;63.10;24.80;;;-1.40;99.90;;;;;;5073226;28;20469;-78
2022/12/10 04:01:13;;;;;;;60.67;24.70;;;-1.40;99.90;;;;;;5088401;28;20021;-78
2022/12/10 04:03:41;;;;;;;61.67;25.13;;;-1.30;99.90;;;;;;5071587;28;20031;-78
2022/12/10 04:06:13;;;;;;;57.37;23.80;;;-1.40;99.90;;;;;;5088775;28;20021;-78
2022/12/10 04:08:38;;;;;;;64.83;25.83;;;-1.40;99.90;;;;;;5088682;28;20278;-78
2022/12/10 04:11:06;;;;;;;60.23;25.30;;;-1.30;99.90;;;;;;5071819;28;20293;-78
2022/12/10 04:16:27;;;;;;;64.97;26.10;;;-1.30;99.90;;;;;;5073315;28;20336;-78
2022/12/10 04:19:05;;;;;;;60.30;24.67;;;-1.20;99.90;;;;;;5040276;28;20028;-78
2022/12/10 04:27:17;;;;;;;86.97;34.10;;;-1.10;99.90;;;;;;5073418;28;20328;-78
2022/12/10 04:29:43;;;;;;;86.07;32.80;;;-1.00;99.90;;;;;;5072939;28;20025;-78
2022/12/10 04:32:08;;;;;;;73.13;32.53;;;-1.00;99.90;;;;;;5071648;28;20024;-78
2022/12/10 04:34:34;;;;;;;77.73;32.57;;;-1.00;99.90;;;;;;5072849;28;20041;-78
2022/12/10 04:37:02;;;;;;;85.70;34.00;;;-0.90;99.90;;;;;;5088445;28;20439;-78
2022/12/10 04:39:27;;;;;;;79.40;34.90;;;-0.90;99.90;;;;;;5088480;28;20025;-77
2022/12/10 04:41:53;;;;;;;81.60;32.47;;;-0.90;99.90;;;;;;5054899;28;20340;-78
2022/12/10 04:44:19;;;;;;;89.97;35.50;;;-0.90;99.90;;;;;;5088388;28;20060;-78
2022/12/10 04:46:45;;;;;;;79.93;33.03;;;-0.80;99.90;;;;;;5071593;28;20063;-78
2022/12/10 04:49:11;;;;;;;92.77;35.80;;;-0.80;99.90;;;;;;5071605;28;20083;-78
2022/12/10 04:51:37;;;;;;;90.03;37.20;;;-0.70;99.90;;;;;;5072870;28;20028;-78
2022/12/10 04:54:03;;;;;;;101.13;40.37;;;-0.80;99.90;;;;;;5071539;28;20124;-78
2022/12/10 04:56:30;;;;;;;91.73;37.83;;;-0.80;99.90;;;;;;5072885;28;20108;-78
2022/12/10 04:58:56;;;;;;;109.07;42.00;;;-0.80;99.90;;;;;;5071645;28;20282;-78
2022/12/10 05:01:22;;;;;;;100.33;37.50;;;-0.80;99.90;;;;;;5072718;28;20031;-78
2022/12/10 05:03:48;;;;;;;96.50;36.70;;;-0.80;99.90;;;;;;5071559;28;20275;-78
2022/12/10 05:06:15;;;;;;;97.50;36.53;;;-0.80;99.90;;;;;;5038312;28;20476;-78
2022/12/10 05:08:41;;;;;;;79.87;33.23;;;-0.70;99.90;;;;;;5088457;28;20388;-78
2022/12/10 05:11:10;;;;;;;90.20;35.30;;;-0.70;99.90;;;;;;5088092;28;20274;-78
2022/12/10 05:13:37;;;;;;;113.70;41.80;;;-0.70;99.90;;;;;;5073988;28;20021;-78
2022/12/10 05:16:04;;;;;;;104.83;38.20;;;-0.70;99.90;;;;;;5075241;28;20059;-78
2022/12/10 05:18:30;;;;;;;102.83;42.20;;;-0.70;99.90;;;;;;5091944;28;20158;-78
2022/12/10 05:21:00;;;;;;;112.30;40.50;;;-0.70;99.90;;;;;;5077563;28;20536;-78
2022/12/10 05:23:29;;;;;;;113.27;38.23;;;-0.70;99.90;;;;;;5089230;28;20460;-78
2022/12/10 05:26:06;;;;;;;101.87;39.43;;;-0.60;99.90;;;;;;5111615;28;20024;-78
2022/12/10 05:28:40;;;;;;;110.70;41.27;;;-0.60;99.90;;;;;;5083370;28;20023;-78
2022/12/10 05:31:11;;;;;;;105.53;38.23;;;-0.60;99.90;;;;;;5079414;28;20349;-78
2022/12/10 05:33:36;;;;;;;104.23;38.93;;;-0.70;99.90;;;;;;5058092;28;20123;-78
2022/12/10 05:36:04;;;;;;;107.30;37.23;;;-0.60;99.90;;;;;;5073539;28;20115;-77
2022/12/10 05:38:31;;;;;;;104.30;38.03;;;-0.70;99.90;;;;;;5074245;28;20476;-78
2022/12/10 05:41:05;;;;;;;105.23;42.03;;;-0.70;99.90;;;;;;5074315;28;20798;-78
2022/12/10 05:43:31;;;;;;;109.75;40.80;;;-0.60;99.90;;;;;;5058000;28;20036;-78
2022/12/10 05:46:05;;;;;;;105.07;41.17;;;-0.60;99.90;;;;;;5074428;28;20020;-78
2022/12/10 05:48:32;;;;;;;115.70;40.60;;;-0.60;99.90;;;;;;5075480;28;20159;-78
2022/12/10 05:51:02;;;;;;;126.13;39.27;;;-0.60;99.90;;;;;;5074027;28;20488;-78
2022/12/10 05:53:28;;;;;;;123.50;41.00;;;-0.60;99.90;;;;;;5058116;28;20063;-78
2022/12/10 05:56:00;;;;;;;132.87;43.07;;;-0.60;99.90;;;;;;5091208;28;20064;-78
2022/12/10 05:58:28;;;;;;;119.43;41.10;;;-0.60;99.90;;;;;;5074116;28;20032;-78
2022/12/10 06:00:55;;;;;;;115.20;39.00;;;-0.70;99.90;;;;;;5057319;28;20127;-79
2022/12/10 06:03:20;;;;;;;116.60;38.37;;;-0.70;99.90;;;;;;5073974;28;20380;-79
2022/12/10 06:05:46;;;;;;;126.77;40.70;;;-0.70;99.90;;;;;;5073949;28;20112;-78
2022/12/10 06:08:12;;;;;;;135.77;41.10;;;-0.70;99.90;;;;;;5040793;28;20484;-79
2022/12/10 06:10:38;;;;;;;174.97;41.17;;;-0.70;99.90;;;;;;5091296;28;20278;-79
2022/12/10 06:13:04;;;;;;;132.07;39.17;;;-0.70;99.90;;;;;;5073806;28;20025;-78
2022/12/10 06:15:31;;;;;;;133.17;37.33;;;-0.70;99.90;;;;;;5073925;28;20029;-79
2022/12/10 06:17:57;;;;;;;129.47;39.97;;;-0.70;99.90;;;;;;5074156;28;20461;-78
2022/12/10 06:20:24;;;;;;;140.57;39.97;;;-0.70;99.90;;;;;;5073755;28;20036;-79
2022/12/10 06:22:50;;;;;;;147.47;38.43;;;-0.80;99.90;;;;;;5073547;28;20024;-79
2022/12/10 06:25:15;;;;;;;141.77;37.83;;;-0.80;99.90;;;;;;5056135;28;20089;-78
2022/12/10 06:27:41;;;;;;;162.87;40.97;;;-0.80;99.90;;;;;;5056786;28;20031;-78
2022/12/10 06:30:07;;;;;;;117.40;38.63;;;-0.90;99.90;;;;;;5056717;28;20029;-79
2022/12/10 06:32:33;;;;;;;146.67;40.87;;;-1.00;99.90;;;;;;5073485;28;20029;-78
2022/12/10 06:34:58;;;;;;;134.23;38.90;;;-1.00;99.90;;;;;;5073351;28;20384;-78
2022/12/10 06:37:24;;;;;;;128.40;39.40;;;-1.00;99.90;;;;;;5056775;28;20032;-78
2022/12/10 06:39:52;;;;;;;127.87;38.37;;;-1.00;99.90;;;;;;5073435;28;20067;-78
2022/12/10 06:42:18;;;;;;;147.83;42.90;;;-0.90;99.90;;;;;;5074572;28;20078;-77
2022/12/10 06:44:43;;;;;;;112.90;37.90;;;-1.00;99.90;;;;;;5056693;28;20274;-78
2022/12/10 06:47:10;;;;;;;145.80;44.27;;;-1.00;99.90;;;;;;5040288;28;20127;-79
2022/12/10 06:49:35;;;;;;;135.83;42.00;;;-1.00;99.90;;;;;;5056608;28;20054;-77
2022/12/10 06:52:01;;;;;;;134.73;39.47;;;-1.00;99.90;;;;;;5073055;28;20509;-76
2022/12/10 06:54:27;;;;;;;109.30;37.67;;;-1.00;99.90;;;;;;5073084;28;20024;-78
2022/12/10 06:56:53;;;;;;;136.67;38.87;;;-1.10;99.90;;;;;;5056388;28;20033;-78
2022/12/10 06:59:20;;;;;;;124.67;38.97;;;-1.10;99.90;;;;;;5039875;28;20361;-78
2022/12/10 07:01:46;;;;;;;132.70;38.03;;;-1.10;99.90;;;;;;5056438;28;20174;-77
2022/12/10 07:04:11;;;;;;;118.90;34.57;;;-1.10;99.90;;;;;;5074099;28;20320;-79
2022/12/10 07:06:37;;;;;;;119.93;40.57;;;-1.10;99.90;;;;;;5072653;28;20024;-78
2022/12/10 07:09:03;;;;;;;128.00;39.63;;;-1.10;99.90;;;;;;5072768;28;20025;-77
2022/12/10 07:11:30;;;;;;;123.27;37.63;;;-1.20;99.90;;;;;;5055808;28;20089;-79
2022/12/10 07:13:56;;;;;;;148.30;38.97;;;-1.20;99.90;;;;;;5056231;28;20059;-78
2022/12/10 07:16:26;;;;;;;130.07;36.30;;;-1.20;99.90;;;;;;5072583;28;20278;-79
2022/12/10 07:18:52;;;;;;;124.50;37.17;;;-1.20;99.90;;;;;;5072491;28;20275;-78
2022/12/10 07:21:27;;;;;;;123.20;37.33;;;-1.20;99.90;;;;;;5039366;28;20386;-78
2022/12/10 07:23:57;;;;;;;111.73;33.83;;;-1.20;99.90;;;;;;5072453;28;20297;-79
2022/12/10 07:26:27;;;;;;;121.43;32.87;;;-1.20;99.90;;;;;;5072610;28;20778;-78
2022/12/10 07:28:53;;;;;;;101.17;32.43;;;-1.00;99.90;;;;;;5072509;28;20285;-77
2022/12/10 07:31:22;;;;;;;108.47;32.23;;;-1.10;99.90;;;;;;5072427;28;20032;-78
2022/12/10 07:33:48;;;;;;;118.73;34.17;;;-1.10;99.90;;;;;;5071012;28;20464;-78
2022/12/10 07:36:14;;;;;;;94.60;30.80;;;-1.10;99.90;;;;;;5076105;28;20282;-78
2022/12/10 07:38:40;;;;;;;120.17;34.83;;;-1.10;99.90;;;;;;5093309;28;20281;-78
2022/12/10 07:41:15;;;;;;;102.23;35.37;;;-1.10;99.90;;;;;;5077172;28;20032;-79
2022/12/10 07:43:42;;;;;;;111.03;32.43;;;-1.10;99.90;;;;;;5093936;28;20453;-78
2022/12/10 07:46:11;;;;;;;127.63;35.13;;;-1.10;99.90;;;;;;5077407;28;20287;-78
2022/12/10 07:48:38;;;;;;;106.07;33.37;;;-1.00;99.90;;;;;;5094461;28;20020;-77
2022/12/10 07:51:05;;;;;;;100.17;31.83;;;-1.10;99.90;;;;;;5093686;28;20094;-78
2022/12/10 07:53:31;;;;;;;103.90;33.40;;;-1.10;99.90;;;;;;5092815;28;20677;-78
2022/12/10 07:55:57;;;;;;;165.40;37.53;;;-1.10;99.90;;;;;;5094158;28;20330;-77
2022/12/10 07:58:22;;;;;;;114.53;34.10;;;-1.00;99.90;;;;;;5092224;28;20365;-79
2022/12/10 08:00:48;;;;;;;105.93;32.57;;;-1.00;99.90;;;;;;5076163;28;20032;-78
2022/12/10 08:03:14;;;;;;;104.00;31.50;;;-1.00;99.90;;;;;;5076481;28;20480;-79
2022/12/10 08:05:39;;;;;;;103.13;33.70;;;-1.00;99.90;;;;;;5076741;28;20109;-78
2022/12/10 08:08:05;;;;;;;104.07;31.90;;;-0.90;99.90;;;;;;5076582;28;20472;-79
2022/12/10 08:10:36;;;;;;;105.73;32.53;;;-0.80;99.90;;;;;;5078554;28;20016;-79
2022/12/10 08:13:08;;;;;;;90.50;29.60;;;-0.80;99.90;;;;;;5097525;28;20480;-79
2022/12/10 08:15:33;;;;;;;106.77;32.80;;;-0.80;99.90;;;;;;5095900;28;20028;-79
2022/12/10 08:17:59;;;;;;;95.27;30.43;;;-0.70;99.90;;;;;;5077004;28;20476;-78
2022/12/10 08:20:24;;;;;;;105.83;32.27;;;-0.70;99.90;;;;;;5094492;28;20036;-79
2022/12/10 08:22:51;;;;;;;107.23;35.27;;;-0.70;99.90;;;;;;5076164;28;20070;-78
2022/12/10 08:25:16;;;;;;;121.23;34.23;;;-0.60;99.90;;;;;;5077401;28;20127;-79
2022/12/10 08:27:42;;;;;;;112.10;32.43;;;-0.60;99.90;;;;;;5094819;28;20059;-79
2022/12/10 08:30:08;;;;;;;96.40;33.53;;;-0.60;99.90;;;;;;5093382;28;20367;-80
2022/12/10 08:32:34;;;;;;;100.50;32.77;;;-0.60;99.90;;;;;;5092888;28;20024;-79
2022/12/10 08:35:00;;;;;;;98.93;31.27;;;-0.50;99.90;;;;;;5075828;28;20511;-78
2022/12/10 08:37:25;;;;;;;97.10;31.70;;;-0.40;99.90;;;;;;5093865;28;20028;-78
2022/12/10 08:39:51;;;;;;;95.83;32.80;;;-0.50;99.90;;;;;;5092759;28;20032;-80
2022/12/10 08:42:16;;;;;;;94.07;30.73;;;-0.50;99.90;;;;;;5076669;28;20024;-79
2022/12/10 08:44:42;;;;;;;82.23;27.23;;;-0.50;99.90;;;;;;5092993;28;20384;-79
2022/12/10 08:47:08;;;;;;;99.90;32.47;;;-0.50;99.90;;;;;;5092003;28;20095;-79
2022/12/10 08:49:34;;;;;;;102.43;32.63;;;-0.50;99.90;;;;;;5094980;28;20047;-79
2022/12/10 08:51:59;;;;;;;100.60;33.50;;;-0.50;99.90;;;;;;5078715;28;20024;-79
2022/12/10 08:54:25;;;;;;;94.80;32.30;;;-0.50;99.90;;;;;;5078946;28;20081;-79
2022/12/10 08:56:50;;;;;;;95.83;31.30;;;-0.40;99.90;;;;;;5097149;28;20024;-76
2022/12/10 08:59:16;;;;;;;107.70;32.17;;;-0.40;99.90;;;;;;5097679;28;20044;-78
2022/12/10 09:01:42;;;;;;;109.23;32.00;;;-0.30;99.90;;;;;;5078876;28;20122;-78
2022/12/10 09:04:08;;;;;;;106.40;32.23;;;-0.40;99.90;;;;;;5097029;28;20025;-78
2022/12/10 09:06:34;;;;;;;92.10;29.43;;;-0.40;99.90;;;;;;5097197;28;20022;-78
2022/12/10 09:09:00;;;;;;;95.63;30.17;;;-0.40;99.90;;;;;;5097461;28;20017;-78
2022/12/10 09:11:29;;;;;;;108.50;30.37;;;-0.30;99.90;;;;;;5080002;28;20024;-78
2022/12/10 09:13:55;;;;;;;89.33;28.83;;;-0.30;99.90;;;;;;5097460;28;20047;-78
2022/12/10 09:16:26;;;;;;;84.00;27.83;;;-0.20;99.90;;;;;;5097164;28;20060;-78
2022/12/10 09:18:52;;;;;;;100.00;31.60;;;-0.10;99.90;;;;;;5098368;28;20136;-79
2022/12/10 09:21:18;;;;;;;96.63;30.07;;;-0.10;99.90;;;;;;5080977;28;20475;-78
2022/12/10 09:23:44;;;;;;;90.87;30.03;;;-0.10;99.90;;;;;;5097820;28;20021;-77
2022/12/10 09:26:14;;;;;;;88.80;29.83;;;-0.10;99.90;;;;;;5096953;28;20051;-78
2022/12/10 09:28:41;;;;;;;90.20;29.13;;;-0.10;99.90;;;;;;5094737;28;20114;-78
2022/12/10 09:31:07;;;;;;;108.63;30.93;;;-0.10;99.90;;;;;;5094842;28;20383;-78
2022/12/10 09:33:34;;;;;;;87.17;29.93;;;-0.10;99.90;;;;;;5077938;28;20556;-79
2022/12/10 09:36:03;;;;;;;93.17;28.50;;;-0.10;99.90;;;;;;5094552;28;20099;-79
2022/12/10 09:38:29;;;;;;;91.43;30.10;;;-0.10;99.90;;;;;;5096024;28;20048;-78
2022/12/10 09:41:05;;;;;;;87.57;29.23;;;-0.10;99.90;;;;;;5094883;28;20191;-78
2022/12/10 09:43:59;;;;;;;90.20;28.10;;;0.00;99.90;;;;;;5094657;28;20023;-78
2022/12/10 09:46:54;;;;;;;77.72;26.67;;;-0.10;99.90;;;;;;5094811;28;20027;-78
2022/12/10 09:49:43;;;;;;;86.07;28.43;;;0.00;99.90;;;;;;5095527;28;20048;-78
2022/12/10 09:52:14;;;;;;;88.13;27.33;;;0.00;99.90;;;;;;5094791;28;20088;-78
2022/12/10 09:54:45;;;;;;;85.90;27.27;;;0.00;99.90;;;;;;5094266;28;20472;-78
2022/12/10 09:57:23;;;;;;;83.63;26.00;;;0.10;99.90;;;;;;5093988;28;20390;-79
2022/12/10 09:59:51;;;;;;;77.23;25.30;;;0.10;99.90;;;;;;5092844;28;20384;-78
2022/12/10 10:02:27;;;;;;;81.27;25.67;;;0.10;99.90;;;;;;5093599;28;20065;-80
2022/12/10 10:05:20;;;;;;;93.43;27.53;;;0.10;99.90;;;;;;5095025;28;20476;-80
2022/12/10 10:07:50;;;;;;;79.13;26.43;;;0.10;99.90;;;;;;5095349;28;20468;-79
2022/12/10 10:10:36;;;;;;;79.93;27.47;;;0.20;99.90;;;;;;5094491;28;20431;-77
2022/12/10 10:13:27;;;;;;;96.67;29.30;;;0.20;99.90;;;;;;5094130;28;20106;-77
2022/12/10 10:15:53;;;;;;;97.00;29.70;;;0.20;99.90;;;;;;5095355;28;20027;-80
2022/12/10 10:18:39;;;;;;;80.90;28.57;;;0.20;99.90;;;;;;5093660;28;20024;-79
2022/12/10 10:21:16;;;;;;;106.10;30.03;;;0.20;99.90;;;;;;5093802;28;20032;-79
2022/12/10 10:23:45;;;;;;;85.57;29.40;;;0.30;99.90;;;;;;5093749;28;20112;-79
2022/12/10 10:26:11;;;;;;;102.53;31.80;;;0.20;99.90;;;;;;5076775;28;20016;-79
2022/12/10 10:28:40;;;;;;;92.67;28.57;;;0.30;99.90;;;;;;5076968;28;20486;-79
2022/12/10 10:31:21;;;;;;;90.73;28.03;;;0.30;99.90;;;;;;5093708;28;20384;-79
2022/12/10 10:34:21;;;;;;;89.07;28.23;;;0.30;99.90;;;;;;5093984;28;20376;-79
2022/12/10 10:36:52;;;;;;;92.00;30.43;;;0.40;99.90;;;;;;5090233;28;20035;-79
2022/12/10 10:39:18;;;;;;;98.83;30.53;;;0.40;99.90;;;;;;5093533;28;20483;-80
2022/12/10 10:41:50;;;;;;;90.77;28.40;;;0.40;99.90;;;;;;5093403;28;20034;-80
2022/12/10 10:44:18;;;;;;;88.50;29.30;;;0.40;99.90;;;;;;5093865;28;20020;-79
2022/12/10 10:46:51;;;;;;;80.10;27.80;;;0.40;99.90;;;;;;5094537;28;20020;-79
2022/12/10 10:49:26;;;;;;;81.57;27.50;;;0.50;99.90;;;;;;5093139;28;20047;-79
2022/12/10 10:51:59;;;;;;;79.60;27.03;;;0.50;99.90;;;;;;5093307;28;20040;-79
2022/12/10 10:54:39;;;;;;;85.25;29.35;;;0.60;99.90;;;;;;5094560;28;20093;-79
2022/12/10 10:57:15;;;;;;;89.97;28.40;;;0.60;99.90;;;;;;5093162;28;20028;-79
2022/12/10 10:59:41;;;;;;;80.93;24.93;;;0.60;99.90;;;;;;5092336;28;20075;-79
2022/12/10 11:02:36;;;;;;;79.03;24.93;;;0.60;99.90;;;;;;5093016;28;20438;-79
2022/12/10 11:05:07;;;;;;;76.07;25.73;;;0.60;99.90;;;;;;5094332;28;20066;-79
2022/12/10 11:07:40;;;;;;;69.23;23.53;;;0.60;99.90;;;;;;5094364;28;20079;-79
2022/12/10 11:10:21;;;;;;;72.17;25.20;;;0.60;99.90;;;;;;5093046;28;20027;-79
2022/12/10 11:12:56;;;;;;;65.30;25.03;;;0.60;99.90;;;;;;5092547;28;20016;-79
2022/12/10 11:15:21;;;;;;;71.77;25.67;;;0.70;99.90;;;;;;5094193;28;20463;-79
2022/12/10 11:17:49;;;;;;;70.40;26.80;;;0.70;99.90;;;;;;5092733;28;20084;-79
2022/12/10 11:20:19;;;;;;;73.03;27.40;;;0.70;99.90;;;;;;5093781;28;20028;-79
2022/12/10 11:23:02;;;;;;;71.07;25.60;;;0.70;99.90;;;;;;5106589;28;20104;-79
2022/12/10 11:25:56;;;;;;;64.00;23.83;;;0.70;99.90;;;;;;5089071;28;20018;-79
2022/12/10 11:28:22;;;;;;;;;;;0.70;99.90;;;;;;5092424;28;20136;-79
2022/12/10 11:31:18;;;;;;;66.90;24.27;;;0.80;99.90;;;;;;5086841;28;20011;-79
2022/12/10 11:34:00;;;;;;;66.13;23.23;;;0.80;99.90;;;;;;5089493;28;20024;-79
2022/12/10 11:36:42;;;;;;;84.63;25.30;;;0.80;99.90;;;;;;5092003;28;20016;-79
2022/12/10 11:39:52;;;;;;;68.07;22.87;;;0.80;99.90;;;;;;5090795;28;20028;-79
2022/12/10 11:42:21;;;;;;;69.57;23.77;;;0.80;99.90;;;;;;5074595;28;20419;-79
2022/12/10 11:44:57;;;;;;;68.10;24.70;;;0.80;99.90;;;;;;5088943;28;20030;-79
2022/12/10 11:47:40;;;;;;;67.73;22.87;;;0.80;99.90;;;;;;5092051;28;20008;-79
2022/12/10 11:50:09;;;;;;;63.20;21.93;;;0.80;99.90;;;;;;5106934;28;20040;-79
2022/12/10 11:52:43;;;;;;;71.83;22.73;;;0.80;99.90;;;;;;5092317;28;20092;-79
2022/12/10 11:55:12;;;;;;;65.13;23.35;;;0.80;99.90;;;;;;5092440;28;20089;-79
2022/12/10 11:58:04;;;;;;;73.53;23.03;;;0.80;99.90;;;;;;5093324;28;20329;-79
2022/12/10 12:00:44;;;;;;;70.63;23.63;;;0.80;99.90;;;;;;5093766;28;20048;-78
2022/12/10 12:03:16;;;;;;;61.67;23.30;;;0.80;99.90;;;;;;5092102;28;20082;-79
2022/12/10 12:06:02;;;;;;;57.23;22.67;;;0.90;99.90;;;;;;5094037;28;20024;-79
2022/12/10 12:09:04;;;;;;;74.37;25.33;;;0.90;99.90;;;;;;5092824;28;20472;-80
2022/12/10 12:11:36;;;;;;;80.87;25.23;;;0.90;99.90;;;;;;5092712;28;20016;-80
2022/12/10 12:14:24;;;;;;;70.47;25.77;;;0.90;99.90;;;;;;5093479;28;20113;-80
2022/12/10 12:17:06;;;;;;;72.53;24.87;;;0.90;99.90;;;;;;5091187;28;20440;-80
2022/12/10 12:19:43;;;;;;;85.47;26.53;;;1.00;99.90;;;;;;5090223;28;20047;-80
2022/12/10 12:22:28;;;;;;;77.43;24.83;;;1.00;99.90;;;;;;5092498;28;20024;-80
2022/12/10 12:25:19;;;;;;;80.50;26.33;;;1.00;99.90;;;;;;5111372;28;20016;-80
2022/12/10 12:27:51;;;;;;;91.13;29.83;;;1.00;99.90;;;;;;5096144;28;20045;-80
2022/12/10 12:30:20;;;;;;;103.63;29.37;;;1.00;99.90;;;;;;5096054;28;20467;-80
2022/12/10 12:33:24;;;;;;;79.73;29.30;;;1.00;99.90;;;;;;5096517;28;20016;-80
2022/12/10 12:36:03;;;;;;;82.30;27.73;;;1.00;99.90;;;;;;5008421;28;20038;-80
2022/12/10 12:38:33;;;;;;;87.33;27.37;;;1.00;99.90;;;;;;5096289;28;20024;-79
2022/12/10 12:41:21;;;;;;;80.53;26.60;;;1.00;99.90;;;;;;5095601;28;20376;-79
2022/12/10 12:44:21;;;;;;;72.90;24.27;;;1.00;99.90;;;;;;5095746;28;20111;-79
2022/12/10 12:46:48;;;;;;;71.77;25.17;;;1.00;99.90;;;;;;5095562;28;20418;-79
2022/12/10 12:49:26;;;;;;;73.27;25.73;;;1.00;99.90;;;;;;5095855;28;20486;-80
2022/12/10 12:52:19;;;;;;;73.10;24.40;;;1.00;99.90;;;;;;5095752;28;20445;-80